createdAt,value
2023-10-23T00:00:23.431Z,66.90
2023-10-23T00:02:52.234Z,66.90
2023-10-23T00:05:21.142Z,66.90
2023-10-23T00:07:51.525Z,66.90
2023-10-23T00:10:20.491Z,66.90
2023-10-23T00:12:49.557Z,66.90
2023-10-23T00:15:18.301Z,66.90
2023-10-23T00:17:47.037Z,66.90
2023-10-23T00:20:16.646Z,66.90
2023-10-23T00:22:45.444Z,66.90
2023-10-23T00:25:15.659Z,66.90
2023-10-23T00:27:44.336Z,67.00
2023-10-23T00:30:13.698Z,66.90
2023-10-23T00:32:42.507Z,66.90
2023-10-23T00:35:11.349Z,67.00
2023-10-23T00:37:39.940Z,66.90
2023-10-23T00:40:09.742Z,66.90
2023-10-23T00:42:39.897Z,66.90
2023-10-23T00:45:09.685Z,66.90
2023-10-23T00:47:38.539Z,66.90
2023-10-23T00:50:08.001Z,66.90
2023-10-23T00:52:36.570Z,66.90
2023-10-23T00:55:05.733Z,66.80
2023-10-23T00:57:35.393Z,66.90
2023-10-23T01:00:07.368Z,66.80
2023-10-23T01:02:36.431Z,66.80
2023-10-23T01:05:05.922Z,66.80
2023-10-23T01:07:34.660Z,66.80
2023-10-23T01:10:04.122Z,66.90
2023-10-23T01:12:33.000Z,66.90
2023-10-23T01:15:01.707Z,66.80
2023-10-23T01:17:31.975Z,66.80
2023-10-23T01:20:00.653Z,66.80
2023-10-23T01:22:29.270Z,66.80
2023-10-23T01:24:58.667Z,66.80
2023-10-23T01:27:28.870Z,66.80
2023-10-23T01:29:57.531Z,66.80
2023-10-23T01:32:26.348Z,66.80
2023-10-23T01:34:55.128Z,66.80
2023-10-23T01:37:24.545Z,66.80
2023-10-23T01:39:53.499Z,66.80
2023-10-23T01:42:22.498Z,66.80
2023-10-23T01:44:52.666Z,66.80
2023-10-23T01:47:21.479Z,66.80
2023-10-23T01:49:50.276Z,66.80
2023-10-23T01:52:19.247Z,66.80
2023-10-23T01:54:48.451Z,66.80
2023-10-23T01:57:17.204Z,66.80
2023-10-23T01:59:45.922Z,66.80
2023-10-23T02:02:16.099Z,66.80
2023-10-23T02:04:45.074Z,66.80
2023-10-23T02:07:13.749Z,66.80
2023-10-23T02:09:42.467Z,66.80
2023-10-23T02:12:11.194Z,66.80
2023-10-23T02:14:40.168Z,66.70
2023-10-23T02:17:09.020Z,66.80
2023-10-23T02:19:39.246Z,66.70
2023-10-23T02:22:07.940Z,66.70
2023-10-23T02:24:36.670Z,66.70
2023-10-23T02:27:05.936Z,66.80
2023-10-23T02:29:34.683Z,66.80
2023-10-23T02:32:03.449Z,66.80
2023-10-23T02:34:32.126Z,66.80
2023-10-23T02:37:02.382Z,66.80
2023-10-23T02:39:31.225Z,66.80
2023-10-23T02:42:00.043Z,66.70
2023-10-23T02:44:28.895Z,66.70
2023-10-23T02:46:57.552Z,66.70
2023-10-23T02:49:26.418Z,66.70
2023-10-23T02:51:55.199Z,66.80
2023-10-23T02:54:25.458Z,66.80
2023-10-23T02:56:54.221Z,66.80
2023-10-23T02:59:23.313Z,66.80
2023-10-23T03:01:52.593Z,66.70
2023-10-23T03:04:21.365Z,66.70
2023-10-23T03:06:49.800Z,66.70
2023-10-23T03:09:18.067Z,66.70
2023-10-23T03:11:47.849Z,66.70
2023-10-23T03:14:16.376Z,66.70
2023-10-23T03:16:44.917Z,66.70
2023-10-23T03:19:13.522Z,66.70
2023-10-23T03:21:42.001Z,66.70
2023-10-23T03:24:11.296Z,66.70
2023-10-23T03:26:39.731Z,66.70
2023-10-23T03:29:09.519Z,66.70
2023-10-23T03:31:38.003Z,66.70
2023-10-23T03:34:06.685Z,66.70
2023-10-23T03:36:35.735Z,66.70
2023-10-23T03:39:04.969Z,66.70
2023-10-23T03:41:33.440Z,66.70
2023-10-23T03:44:03.326Z,66.60
2023-10-23T03:46:33.453Z,66.70
2023-10-23T03:49:01.962Z,66.70
2023-10-23T03:51:30.436Z,66.70
2023-10-23T03:53:58.875Z,66.60
2023-10-23T03:56:27.374Z,66.70
2023-10-23T03:58:55.763Z,66.70
2023-10-23T04:01:24.157Z,66.70
2023-10-23T04:03:54.022Z,66.60
2023-10-23T04:06:22.514Z,66.70
2023-10-23T04:08:53.766Z,66.60
2023-10-23T04:11:23.044Z,66.60
2023-10-23T04:13:51.463Z,66.60
2023-10-23T04:16:20.199Z,66.60
2023-10-23T04:18:49.129Z,66.60
2023-10-23T04:21:22.106Z,66.60
2023-10-23T04:23:50.567Z,66.60
2023-10-23T04:26:19.035Z,66.60
2023-10-23T04:28:47.728Z,66.60
2023-10-23T04:31:16.210Z,66.60
2023-10-23T04:33:44.875Z,66.60
2023-10-23T04:36:13.456Z,66.60
2023-10-23T04:38:44.108Z,66.60
2023-10-23T04:41:12.788Z,66.60
2023-10-23T04:43:41.486Z,66.60
2023-10-23T04:46:10.300Z,66.60
2023-10-23T04:48:39.204Z,66.60
2023-10-23T04:51:07.849Z,66.60
2023-10-23T04:53:36.446Z,66.60
2023-10-23T04:56:08.888Z,66.50
2023-10-23T04:58:37.502Z,66.60
2023-10-23T05:01:06.093Z,66.50
2023-10-23T05:03:35.010Z,66.60
2023-10-23T05:06:03.602Z,66.50
2023-10-23T05:08:32.209Z,66.60
2023-10-23T05:11:09.246Z,66.50
2023-10-23T05:13:37.768Z,66.50
2023-10-23T05:16:07.300Z,67.10
2023-10-23T05:18:36.675Z,66.50
2023-10-23T05:21:09.487Z,66.50
2023-10-23T05:23:37.916Z,66.50
2023-10-23T05:26:07.908Z,66.50
2023-10-23T05:28:39.930Z,66.50
2023-10-23T05:31:09.916Z,66.50
2023-10-23T05:33:38.910Z,66.50
2023-10-23T05:36:10.916Z,66.50
2023-10-23T05:38:40.591Z,66.50
2023-10-23T05:41:11.237Z,66.40
2023-10-23T05:43:41.369Z,66.50
2023-10-23T05:46:10.082Z,66.50
2023-10-23T05:48:38.805Z,66.50
2023-10-23T05:51:08.242Z,66.40
2023-10-23T05:53:37.416Z,66.50
2023-10-23T05:56:06.720Z,66.40
2023-10-23T05:58:36.057Z,66.40
2023-10-23T06:01:09.903Z,66.50
2023-10-23T06:03:38.964Z,66.40
2023-10-23T06:06:08.444Z,66.40
2023-10-23T06:08:37.521Z,66.40
2023-10-23T06:11:09.786Z,66.40
2023-10-23T06:13:38.708Z,66.40
2023-10-23T06:16:09.276Z,66.40
2023-10-23T06:18:40.165Z,66.40
2023-10-23T06:21:09.363Z,66.40
2023-10-23T06:23:39.318Z,66.40
2023-10-23T06:26:08.649Z,66.40
2023-10-23T06:28:38.899Z,66.40
2023-10-23T06:31:09.658Z,66.40
2023-10-23T06:33:40.092Z,66.40
2023-10-23T06:36:10.748Z,66.40
2023-10-23T06:38:39.756Z,66.40
2023-10-23T06:41:09.202Z,66.40
2023-10-23T06:43:38.770Z,66.50
2023-10-23T06:46:09.116Z,66.40
2023-10-23T06:48:37.753Z,66.40
2023-10-23T06:51:07.613Z,66.50
2023-10-23T06:53:36.150Z,66.40
2023-10-23T06:56:05.017Z,67.10
2023-10-23T06:58:34.324Z,66.40
2023-10-23T07:01:09.907Z,66.40
2023-10-23T07:03:39.420Z,66.40
2023-10-23T07:06:08.485Z,66.40
2023-10-23T07:08:38.667Z,66.40
2023-10-23T07:11:14.718Z,66.40
2023-10-23T07:13:43.188Z,66.40
2023-10-23T07:16:13.318Z,66.40
2023-10-23T07:18:41.840Z,66.40
2023-10-23T07:21:11.094Z,66.40
2023-10-23T07:23:40.004Z,66.40
2023-10-23T07:26:12.077Z,66.40
2023-10-23T07:28:40.886Z,66.40
2023-10-23T07:31:10.472Z,66.40
2023-10-23T07:33:40.772Z,66.40
2023-10-23T07:36:11.561Z,66.40
2023-10-23T07:38:42.077Z,66.40
2023-10-23T07:41:11.005Z,66.40
2023-10-23T07:43:39.736Z,66.40
2023-10-23T07:46:16.377Z,66.40
2023-10-23T07:48:48.232Z,66.40
2023-10-23T07:51:17.066Z,66.40
2023-10-23T07:53:45.602Z,66.40
2023-10-23T07:56:15.092Z,66.40
2023-10-23T07:58:43.997Z,66.40
2023-10-23T08:01:14.990Z,66.40
2023-10-23T08:03:44.251Z,66.40
2023-10-23T08:06:15.044Z,66.40
2023-10-23T08:08:46.177Z,66.40
2023-10-23T08:11:15.522Z,66.40
2023-10-23T08:13:44.498Z,66.40
2023-10-23T08:16:13.267Z,66.40
2023-10-23T08:18:43.047Z,66.40
2023-10-23T08:21:14.560Z,66.40
2023-10-23T08:23:44.056Z,66.40
2023-10-23T08:26:13.887Z,66.40
2023-10-23T08:31:25.485Z,66.40
2023-10-23T08:34:03.386Z,66.40
2023-10-23T08:36:34.272Z,66.40
2023-10-23T08:39:04.634Z,66.40
2023-10-23T08:41:35.310Z,66.40
2023-10-23T08:44:04.601Z,66.30
2023-10-23T08:46:35.107Z,66.40
2023-10-23T08:49:05.190Z,66.30
2023-10-23T08:51:37.102Z,66.40
2023-10-23T08:54:12.358Z,66.40
2023-10-23T08:56:44.253Z,66.30
2023-10-23T08:59:14.320Z,66.30
2023-10-23T09:01:43.157Z,66.30
2023-10-23T09:04:13.018Z,66.30
2023-10-23T09:06:44.850Z,66.30
2023-10-23T09:09:13.970Z,66.30
2023-10-23T09:11:46.984Z,66.30
2023-10-23T09:14:26.026Z,66.30
2023-10-23T09:16:56.582Z,66.40
2023-10-23T09:19:34.170Z,66.40
2023-10-23T09:22:05.900Z,67.00
2023-10-23T09:24:35.128Z,66.40
2023-10-23T09:27:04.416Z,66.30
2023-10-23T09:29:34.812Z,66.30
2023-10-23T09:32:04.346Z,66.30
2023-10-23T09:34:34.627Z,66.30
2023-10-23T09:37:06.679Z,66.30
2023-10-23T09:39:39.827Z,66.30
2023-10-23T09:42:10.629Z,66.30
2023-10-23T09:44:40.577Z,66.30
2023-10-23T09:47:10.505Z,66.30
2023-10-23T09:49:42.658Z,66.30
2023-10-23T09:52:14.620Z,66.30
2023-10-23T09:54:46.855Z,66.30
2023-10-23T09:57:17.007Z,66.30
2023-10-23T09:59:50.986Z,66.30
2023-10-23T10:02:22.046Z,66.30
2023-10-23T10:04:58.656Z,66.30
2023-10-23T10:07:34.303Z,66.20
2023-10-23T10:10:05.762Z,66.30
2023-10-23T10:12:35.806Z,66.30
2023-10-23T10:15:05.823Z,66.30
2023-10-23T10:17:36.878Z,66.20
2023-10-23T10:20:07.079Z,66.30
2023-10-23T10:22:38.646Z,66.30
2023-10-23T10:25:09.003Z,66.30
2023-10-23T10:27:37.573Z,66.30
2023-10-23T10:30:07.613Z,66.30
2023-10-23T10:34:18.326Z,66.30
2023-10-23T10:35:41.520Z,66.30
2023-10-23T10:38:14.905Z,66.30
2023-10-23T10:41:00.188Z,66.30
2023-10-23T10:43:32.464Z,66.20
2023-10-23T10:46:02.616Z,66.30
2023-10-23T10:48:43.429Z,66.30
2023-10-23T10:51:11.912Z,66.30
2023-10-23T10:53:42.562Z,66.20
2023-10-23T10:56:11.463Z,66.20
2023-10-23T10:58:43.396Z,66.20
2023-10-23T11:01:12.419Z,66.20
2023-10-23T11:03:42.722Z,66.30
2023-10-23T11:06:11.721Z,66.00
2023-10-23T11:08:42.850Z,66.30
2023-10-23T11:11:11.508Z,66.20
2023-10-23T11:13:41.391Z,66.20
2023-10-23T11:16:10.045Z,66.20
2023-10-23T11:18:38.848Z,66.20
2023-10-23T11:21:08.292Z,66.30
2023-10-23T11:23:36.669Z,66.30
2023-10-23T11:26:08.314Z,66.20
2023-10-23T11:28:36.791Z,66.20
2023-10-23T11:31:05.469Z,66.20
2023-10-23T11:33:33.962Z,66.30
2023-10-23T11:36:06.554Z,66.30
2023-10-23T11:38:39.294Z,66.30
2023-10-23T11:41:11.002Z,66.20
2023-10-23T11:43:41.249Z,66.30
2023-10-23T11:46:09.885Z,66.30
2023-10-23T11:48:38.321Z,66.20
2023-10-23T11:51:06.937Z,66.30
2023-10-23T11:53:35.486Z,66.30
2023-10-23T11:56:05.929Z,66.20
2023-10-23T11:58:36.153Z,66.30
2023-10-23T12:01:06.091Z,66.20
2023-10-23T12:03:34.698Z,66.20
2023-10-23T12:06:04.760Z,66.20
2023-10-23T12:08:33.396Z,66.30
2023-10-23T12:11:01.917Z,66.20
2023-10-23T12:13:30.275Z,66.30
2023-10-23T12:16:00.228Z,66.30
2023-10-23T12:18:29.320Z,66.30
2023-10-23T12:20:59.680Z,66.30
2023-10-23T12:23:28.225Z,66.30
2023-10-23T12:25:57.754Z,66.30
2023-10-23T12:28:26.150Z,66.20
2023-10-23T12:30:54.646Z,66.30
2023-10-23T12:33:31.993Z,66.20
2023-10-23T12:36:05.480Z,66.20
2023-10-23T12:38:34.580Z,66.20
2023-10-23T12:41:03.650Z,66.30
2023-10-23T12:43:32.027Z,66.20
2023-10-23T12:46:01.729Z,66.90
2023-10-23T12:48:31.615Z,66.20
2023-10-23T12:51:00.106Z,66.20
2023-10-23T12:53:28.455Z,66.20
2023-10-23T12:55:56.889Z,66.20
2023-10-23T12:58:25.467Z,66.20
2023-10-23T13:00:54.220Z,66.20
2023-10-23T13:03:22.677Z,66.20
2023-10-23T13:05:52.382Z,66.20
2023-10-23T13:08:21.064Z,66.20
2023-10-23T13:10:49.706Z,66.20
2023-10-23T13:13:18.246Z,66.20
2023-10-23T13:15:46.612Z,66.20
2023-10-23T13:18:15.093Z,66.20
2023-10-23T13:21:27.880Z,66.20
2023-10-23T13:23:33.913Z,66.20
2023-10-23T13:26:13.288Z,66.20
2023-10-23T13:28:42.725Z,66.30
2023-10-23T13:31:11.436Z,66.30
2023-10-23T13:33:40.112Z,66.30
2023-10-23T13:36:10.145Z,66.30
2023-10-23T13:38:39.932Z,66.30
2023-10-23T13:41:08.327Z,66.30
2023-10-23T13:43:36.676Z,66.30
2023-10-23T13:46:06.364Z,66.30
2023-10-23T13:48:34.882Z,66.30
2023-10-23T13:51:03.377Z,66.30
2023-10-23T13:53:32.083Z,66.30
2023-10-23T13:56:02.092Z,66.30
2023-10-23T13:58:30.463Z,66.30
2023-10-23T14:00:58.909Z,66.30
2023-10-23T14:03:29.239Z,66.30
2023-10-23T14:05:58.211Z,66.30
2023-10-23T14:09:42.083Z,66.30
2023-10-23T14:11:58.711Z,66.30
2023-10-23T14:14:05.098Z,66.30
2023-10-23T14:16:33.779Z,66.30
2023-10-23T14:19:02.213Z,66.30
2023-10-23T14:21:31.332Z,66.30
2023-10-23T14:23:59.667Z,66.20
2023-10-23T14:26:29.449Z,66.20
2023-10-23T14:28:57.822Z,66.20
2023-10-23T14:31:26.637Z,66.20
2023-10-23T14:33:57.630Z,66.20
2023-10-23T14:36:27.261Z,66.20
2023-10-23T14:38:55.723Z,66.20
2023-10-23T14:41:24.651Z,66.20
2023-10-23T14:43:54.722Z,66.20
2023-10-23T14:46:25.184Z,66.20
2023-10-23T14:48:53.915Z,66.20
2023-10-23T14:51:22.601Z,66.20
2023-10-23T14:53:52.838Z,66.20
2023-10-23T14:56:21.347Z,66.20
2023-10-23T14:58:49.686Z,66.20
2023-10-23T15:01:19.566Z,66.20
2023-10-23T15:03:48.231Z,66.20
2023-10-23T15:06:16.858Z,66.20
2023-10-23T15:08:46.644Z,66.20
2023-10-23T15:11:15.912Z,66.30
2023-10-23T15:13:44.325Z,66.20
2023-10-23T15:16:12.934Z,66.20
2023-10-23T15:18:42.890Z,66.20
2023-10-23T15:21:11.759Z,66.20
2023-10-23T15:23:40.494Z,66.20
2023-10-23T15:26:09.892Z,66.20
2023-10-23T15:28:39.535Z,66.20
2023-10-23T15:31:08.926Z,66.20
2023-10-23T15:33:37.956Z,66.20
2023-10-23T15:36:08.733Z,66.30
2023-10-23T15:38:39.842Z,66.30
2023-10-23T15:41:09.307Z,66.30
2023-10-23T15:43:38.829Z,66.20
2023-10-23T15:46:13.055Z,66.20
2023-10-23T15:48:41.969Z,66.30
2023-10-23T15:51:11.931Z,66.20
2023-10-23T15:53:40.935Z,66.20
2023-10-23T15:56:09.634Z,66.20
2023-10-23T15:58:38.498Z,66.20
2023-10-23T16:01:08.242Z,66.20
2023-10-23T16:03:38.207Z,66.20
2023-10-23T16:06:10.142Z,66.30
2023-10-23T16:08:40.771Z,66.20
2023-10-23T16:11:09.782Z,66.20
2023-10-23T16:13:39.958Z,66.20
2023-10-23T16:16:16.455Z,66.20
2023-10-23T16:18:48.311Z,66.20
2023-10-23T16:21:17.386Z,66.20
2023-10-23T16:23:48.370Z,66.20
2023-10-23T16:26:16.833Z,66.20
2023-10-23T16:28:45.487Z,66.20
2023-10-23T16:31:18.264Z,66.20
2023-10-23T16:33:47.483Z,66.20
2023-10-23T16:36:16.077Z,66.20
2023-10-23T16:38:44.801Z,66.20
2023-10-23T16:41:15.686Z,66.20
2023-10-23T16:43:44.164Z,66.20
2023-10-23T16:46:13.441Z,66.20
2023-10-23T16:48:42.739Z,66.20
2023-10-23T16:51:12.651Z,66.30
2023-10-23T16:53:41.610Z,66.20
2023-10-23T16:56:10.580Z,66.20
2023-10-23T16:58:40.710Z,66.30
2023-10-23T17:01:09.618Z,66.20
2023-10-23T17:03:41.845Z,66.20
2023-10-23T17:06:11.288Z,66.30
2023-10-23T17:08:39.771Z,66.20
2023-10-23T17:11:09.110Z,66.20
2023-10-23T17:13:37.859Z,66.20
2023-10-23T17:16:08.312Z,66.20
2023-10-23T17:18:36.763Z,66.20
2023-10-23T17:21:05.689Z,66.20
2023-10-23T17:23:35.122Z,66.20
2023-10-23T17:26:03.594Z,66.20
2023-10-23T17:28:32.030Z,66.30
2023-10-23T17:31:01.244Z,66.20
2023-10-23T17:33:32.249Z,66.20
2023-10-23T17:36:01.044Z,66.80
2023-10-23T17:38:30.150Z,66.20
2023-10-23T17:40:59.010Z,66.20
2023-10-23T17:43:27.518Z,66.20
2023-10-23T17:45:56.303Z,66.20
2023-10-23T17:48:25.155Z,66.20
2023-10-23T17:51:00.952Z,66.30
2023-10-23T17:53:29.343Z,66.20
2023-10-23T17:55:57.828Z,66.20
2023-10-23T17:58:26.400Z,66.20
2023-10-23T18:00:54.970Z,66.20
2023-10-23T18:03:23.910Z,66.20
2023-10-23T18:05:59.687Z,66.80
2023-10-23T18:08:28.394Z,66.20
2023-10-23T18:10:56.825Z,66.20
2023-10-23T18:13:25.485Z,66.20
2023-10-23T18:15:54.045Z,66.20
2023-10-23T18:18:22.667Z,66.20
2023-10-23T18:20:55.140Z,66.20
2023-10-23T18:23:24.975Z,66.20
2023-10-23T18:25:53.759Z,66.80
2023-10-23T18:28:22.349Z,66.20
2023-10-23T18:30:50.856Z,66.20
2023-10-23T18:33:19.885Z,66.20
2023-10-23T18:35:48.466Z,66.20
2023-10-23T18:38:17.257Z,66.20
2023-10-23T18:40:47.798Z,66.20
2023-10-23T18:43:16.459Z,66.20
2023-10-23T18:45:45.718Z,66.20
2023-10-23T18:48:14.554Z,66.80
2023-10-23T18:50:44.010Z,66.20
2023-10-23T18:53:12.490Z,66.20
2023-10-23T18:55:41.200Z,66.20
2023-10-23T18:58:11.663Z,66.20
2023-10-23T19:00:40.797Z,66.20
2023-10-23T19:03:09.740Z,66.20
2023-10-23T19:05:39.308Z,66.30
2023-10-23T19:08:10.062Z,66.30
2023-10-23T19:10:41.768Z,66.30
2023-10-23T19:13:15.654Z,66.40
2023-10-23T19:15:44.657Z,66.40
2023-10-23T19:18:13.651Z,66.30
2023-10-23T19:20:42.278Z,66.30
2023-10-23T19:23:11.074Z,66.40
2023-10-23T19:25:39.559Z,66.40
2023-10-23T19:28:08.104Z,66.50
2023-10-23T19:30:37.768Z,66.50
2023-10-23T19:33:06.831Z,66.40
2023-10-23T19:35:36.004Z,66.50
2023-10-23T19:38:04.921Z,66.50
2023-10-23T19:40:34.182Z,66.40
2023-10-23T19:43:11.775Z,66.40
2023-10-23T19:45:42.369Z,66.40
2023-10-23T19:48:13.123Z,66.30
2023-10-23T19:50:47.137Z,66.40
2023-10-23T19:53:17.045Z,66.30
2023-10-23T19:55:48.349Z,66.40
2023-10-23T19:58:17.939Z,66.40
2023-10-23T20:00:49.377Z,66.30
2023-10-23T20:03:18.188Z,66.40
2023-10-23T20:05:47.078Z,66.30
2023-10-23T20:08:15.396Z,66.30
2023-10-23T20:10:43.844Z,66.40
2023-10-23T20:13:12.257Z,66.40
2023-10-23T20:15:40.784Z,66.40
2023-10-23T20:18:10.598Z,66.40
2023-10-23T20:20:39.471Z,66.40
2023-10-23T20:23:08.435Z,66.40
2023-10-23T20:25:36.869Z,66.40
2023-10-23T20:28:06.303Z,66.40
2023-10-23T20:30:35.152Z,66.50
2023-10-23T20:33:04.120Z,66.40
2023-10-23T20:35:33.826Z,66.30
2023-10-23T20:38:02.117Z,66.50
2023-10-23T20:40:30.557Z,66.40
2023-10-23T20:42:59.417Z,66.40
2023-10-23T20:45:27.944Z,66.40
2023-10-23T20:47:56.373Z,66.40
2023-10-23T20:50:25.604Z,66.40
2023-10-23T20:52:55.573Z,66.40
2023-10-23T20:55:24.643Z,66.40
2023-10-23T20:57:53.083Z,66.30
2023-10-23T21:00:21.948Z,66.40
2023-10-23T21:02:50.689Z,66.40
2023-10-23T21:05:19.177Z,66.40
2023-10-23T21:07:47.757Z,66.40
2023-10-23T21:10:17.703Z,66.40
2023-10-23T21:12:46.363Z,66.40
2023-10-23T21:15:14.894Z,66.50
2023-10-23T21:17:43.429Z,66.40
2023-10-23T21:20:12.461Z,66.50
2023-10-23T21:22:40.885Z,66.50
2023-10-23T21:25:10.109Z,66.40
2023-10-23T21:27:40.344Z,66.50
2023-10-23T21:30:11.078Z,66.50
2023-10-23T21:32:39.667Z,66.50
2023-10-23T21:35:09.410Z,66.40
2023-10-23T21:37:40.197Z,66.40
2023-10-23T21:40:10.158Z,66.40
2023-10-23T21:42:40.956Z,66.40
2023-10-23T21:45:10.557Z,66.40
2023-10-23T21:47:39.617Z,66.40
2023-10-23T21:50:09.374Z,66.40
2023-10-23T21:52:38.389Z,66.40
2023-10-23T21:55:18.654Z,66.40
2023-10-23T21:57:50.289Z,66.40
2023-10-23T22:00:28.570Z,66.40
2023-10-23T22:02:58.303Z,66.40
2023-10-23T22:05:27.511Z,66.40
2023-10-23T22:07:56.426Z,66.40
2023-10-23T22:10:26.929Z,66.40
2023-10-23T22:12:58.997Z,66.40
2023-10-23T22:15:27.765Z,66.40
2023-10-23T22:17:56.124Z,66.50
2023-10-23T22:20:24.769Z,66.40
2023-10-23T22:22:53.297Z,66.50
2023-10-23T22:25:22.559Z,66.40
2023-10-23T22:27:51.067Z,66.40
2023-10-23T22:30:21.525Z,66.50
2023-10-23T22:33:04.060Z,66.40
2023-10-23T22:35:38.555Z,66.50
2023-10-23T22:38:09.730Z,66.40
2023-10-23T22:40:38.601Z,66.50
2023-10-23T22:43:07.059Z,66.40
2023-10-23T22:45:44.259Z,66.40
2023-10-23T22:48:24.181Z,66.50
2023-10-23T22:50:53.297Z,66.50
2023-10-23T22:53:23.580Z,66.50
2023-10-23T22:55:55.138Z,66.50
2023-10-23T22:58:30.816Z,66.50
2023-10-23T23:01:01.399Z,66.50
2023-10-23T23:03:30.495Z,66.50
2023-10-23T23:06:08.747Z,66.50
2023-10-23T23:08:43.601Z,66.50
2023-10-23T23:11:12.524Z,66.50
2023-10-23T23:13:41.225Z,66.50
2023-10-23T23:16:12.542Z,66.50
2023-10-23T23:18:42.414Z,66.50
2023-10-23T23:21:11.724Z,66.50
2023-10-23T23:23:39.909Z,66.50
2023-10-23T23:26:08.361Z,66.50
2023-10-23T23:28:36.736Z,66.50
2023-10-23T23:31:04.969Z,66.50
2023-10-23T23:33:34.658Z,66.50
2023-10-23T23:36:03.432Z,66.50
2023-10-23T23:38:31.640Z,66.50
2023-10-23T23:40:59.956Z,66.50
2023-10-23T23:43:28.300Z,66.50
2023-10-23T23:45:56.793Z,66.60
2023-10-23T23:48:25.558Z,66.50
2023-10-23T23:50:55.123Z,66.50
2023-10-23T23:53:23.617Z,66.50
2023-10-23T23:55:51.874Z,66.50
2023-10-23T23:58:20.238Z,66.50
